sensor_id;sensor_type;location;lat;lon;timestamp;temperature;humidity
22002;DHT22;11165;51.278;12.398;2022-08-19T00:01:53;20.30;99.90
22002;DHT22;11165;51.278;12.398;2022-08-19T00:04:22;20.30;99.90
22002;DHT22;11165;51.278;12.398;2022-08-19T00:06:48;20.30;99.90
22002;DHT22;11165;51.278;12.398;2022-08-19T00:09:16;20.30;99.90
22002;DHT22;11165;51.278;12.398;2022-08-19T00:11:44;20.30;99.90
22002;DHT22;11165;51.278;12.398;2022-08-19T00:14:12;20.30;99.90
22002;DHT22;11165;51.278;12.398;2022-08-19T00:16:39;20.30;99.90
22002;DHT22;11165;51.278;12.398;2022-08-19T00:19:06;20.30;99.90
22002;DHT22;11165;51.278;12.398;2022-08-19T00:21:32;20.30;99.90
22002;DHT22;11165;51.278;12.398;2022-08-19T00:23:58;20.30;99.90
22002;DHT22;11165;51.278;12.398;2022-08-19T00:26:25;20.30;99.90
22002;DHT22;11165;51.278;12.398;2022-08-19T00:28:51;20.30;99.90
22002;DHT22;11165;51.278;12.398;2022-08-19T00:31:17;20.20;99.90
22002;DHT22;11165;51.278;12.398;2022-08-19T00:33:42;20.30;99.90
22002;DHT22;11165;51.278;12.398;2022-08-19T00:36:09;20.20;99.90
22002;DHT22;11165;51.278;12.398;2022-08-19T00:38:36;20.20;99.90
22002;DHT22;11165;51.278;12.398;2022-08-19T00:41:04;20.30;99.90
22002;DHT22;11165;51.278;12.398;2022-08-19T00:43:30;20.20;99.90
22002;DHT22;11165;51.278;12.398;2022-08-19T00:45:56;20.30;99.90
22002;DHT22;11165;51.278;12.398;2022-08-19T00:48:21;20.20;99.90
22002;DHT22;11165;51.278;12.398;2022-08-19T00:50:50;20.20;99.90
22002;DHT22;11165;51.278;12.398;2022-08-19T00:53:20;20.20;99.90
22002;DHT22;11165;51.278;12.398;2022-08-19T00:55:48;20.20;99.90
22002;DHT22;11165;51.278;12.398;2022-08-19T00:58:17;20.20;99.90
22002;DHT22;11165;51.278;12.398;2022-08-19T01:00:45;20.20;99.90
22002;DHT22;11165;51.278;12.398;2022-08-19T01:03:14;20.20;99.90
22002;DHT22;11165;51.278;12.398;2022-08-19T01:05:42;20.20;99.90
22002;DHT22;11165;51.278;12.398;2022-08-19T01:08:09;20.20;99.90
22002;DHT22;11165;51.278;12.398;2022-08-19T01:10:50;20.20;99.90
22002;DHT22;11165;51.278;12.398;2022-08-19T01:13:20;20.20;99.90
22002;DHT22;11165;51.278;12.398;2022-08-19T01:15:52;20.10;99.90
22002;DHT22;11165;51.278;12.398;2022-08-19T01:18:19;20.10;99.90
22002;DHT22;11165;51.278;12.398;2022-08-19T01:20:46;20.20;99.90
22002;DHT22;11165;51.278;12.398;2022-08-19T01:23:12;20.20;99.90
22002;DHT22;11165;51.278;12.398;2022-08-19T01:25:51;20.20;99.90
22002;DHT22;11165;51.278;12.398;2022-08-19T01:28:20;20.20;99.90
22002;DHT22;11165;51.278;12.398;2022-08-19T01:30:47;20.20;99.90
22002;DHT22;11165;51.278;12.398;2022-08-19T01:33:13;20.20;99.90
22002;DHT22;11165;51.278;12.398;2022-08-19T01:35:39;20.20;99.90
22002;DHT22;11165;51.278;12.398;2022-08-19T01:38:08;20.20;99.90
22002;DHT22;11165;51.278;12.398;2022-08-19T01:40:37;20.10;99.90
22002;DHT22;11165;51.278;12.398;2022-08-19T01:43:04;20.10;99.90
22002;DHT22;11165;51.278;12.398;2022-08-19T01:45:33;20.10;99.90
22002;DHT22;11165;51.278;12.398;2022-08-19T01:48:00;20.10;99.90
22002;DHT22;11165;51.278;12.398;2022-08-19T01:50:26;20.20;99.90
22002;DHT22;11165;51.278;12.398;2022-08-19T01:52:52;20.20;99.90
22002;DHT22;11165;51.278;12.398;2022-08-19T01:55:20;20.20;99.90
22002;DHT22;11165;51.278;12.398;2022-08-19T01:57:50;20.20;99.90
22002;DHT22;11165;51.278;12.398;2022-08-19T02:00:19;20.20;99.90
22002;DHT22;11165;51.278;12.398;2022-08-19T02:02:44;20.20;99.90
22002;DHT22;11165;51.278;12.398;2022-08-19T02:05:10;20.20;99.90
22002;DHT22;11165;51.278;12.398;2022-08-19T02:07:37;20.20;99.90
22002;DHT22;11165;51.278;12.398;2022-08-19T02:10:04;20.20;99.90
22002;DHT22;11165;51.278;12.398;2022-08-19T02:12:30;20.20;99.90
22002;DHT22;11165;51.278;12.398;2022-08-19T02:14:55;20.20;99.90
22002;DHT22;11165;51.278;12.398;2022-08-19T02:17:21;20.20;99.90
22002;DHT22;11165;51.278;12.398;2022-08-19T02:19:46;20.20;99.90
22002;DHT22;11165;51.278;12.398;2022-08-19T02:22:14;20.20;99.90
22002;DHT22;11165;51.278;12.398;2022-08-19T02:24:40;20.20;99.90
22002;DHT22;11165;51.278;12.398;2022-08-19T02:27:05;20.20;99.90
22002;DHT22;11165;51.278;12.398;2022-08-19T02:29:31;20.20;99.90
22002;DHT22;11165;51.278;12.398;2022-08-19T02:31:56;20.20;99.90
22002;DHT22;11165;51.278;12.398;2022-08-19T02:34:22;20.20;99.90
22002;DHT22;11165;51.278;12.398;2022-08-19T02:36:50;20.20;99.90
22002;DHT22;11165;51.278;12.398;2022-08-19T02:39:16;20.20;99.90
22002;DHT22;11165;51.278;12.398;2022-08-19T02:41:41;20.20;99.90
22002;DHT22;11165;51.278;12.398;2022-08-19T02:44:07;20.20;99.90
22002;DHT22;11165;51.278;12.398;2022-08-19T02:46:33;20.30;99.90
22002;DHT22;11165;51.278;12.398;2022-08-19T02:49:04;20.30;99.90
22002;DHT22;11165;51.278;12.398;2022-08-19T02:51:35;20.30;99.90
22002;DHT22;11165;51.278;12.398;2022-08-19T02:54:02;20.20;99.90
22002;DHT22;11165;51.278;12.398;2022-08-19T02:56:29;20.30;99.90
22002;DHT22;11165;51.278;12.398;2022-08-19T02:58:56;20.30;99.90
22002;DHT22;11165;51.278;12.398;2022-08-19T03:01:22;20.30;99.90
22002;DHT22;11165;51.278;12.398;2022-08-19T03:03:48;20.30;99.90
22002;DHT22;11165;51.278;12.398;2022-08-19T03:06:15;20.30;99.90
22002;DHT22;11165;51.278;12.398;2022-08-19T03:08:45;20.30;99.90
22002;DHT22;11165;51.278;12.398;2022-08-19T03:11:26;20.30;99.90
22002;DHT22;11165;51.278;12.398;2022-08-19T03:13:52;20.30;99.90
22002;DHT22;11165;51.278;12.398;2022-08-19T03:16:19;20.30;99.90
22002;DHT22;11165;51.278;12.398;2022-08-19T03:18:45;20.30;99.90
22002;DHT22;11165;51.278;12.398;2022-08-19T03:21:19;20.30;99.90
22002;DHT22;11165;51.278;12.398;2022-08-19T03:23:45;20.40;99.90
22002;DHT22;11165;51.278;12.398;2022-08-19T03:26:11;20.30;99.90
22002;DHT22;11165;51.278;12.398;2022-08-19T03:28:36;20.30;99.90
22002;DHT22;11165;51.278;12.398;2022-08-19T03:31:12;20.40;99.90
22002;DHT22;11165;51.278;12.398;2022-08-19T03:33:39;20.30;99.90
22002;DHT22;11165;51.278;12.398;2022-08-19T03:36:06;20.40;99.90
22002;DHT22;11165;51.278;12.398;2022-08-19T03:38:35;20.30;99.90
22002;DHT22;11165;51.278;12.398;2022-08-19T03:41:06;20.30;99.90
22002;DHT22;11165;51.278;12.398;2022-08-19T03:43:35;20.40;99.90
22002;DHT22;11165;51.278;12.398;2022-08-19T03:46:04;20.40;99.90
22002;DHT22;11165;51.278;12.398;2022-08-19T03:48:30;20.30;99.90
22002;DHT22;11165;51.278;12.398;2022-08-19T03:50:58;20.40;99.90
22002;DHT22;11165;51.278;12.398;2022-08-19T03:53:25;20.30;99.90
22002;DHT22;11165;51.278;12.398;2022-08-19T03:55:51;20.30;99.90
22002;DHT22;11165;51.278;12.398;2022-08-19T03:58:18;20.30;99.90
22002;DHT22;11165;51.278;12.398;2022-08-19T04:00:43;20.30;99.90
22002;DHT22;11165;51.278;12.398;2022-08-19T04:03:09;20.30;99.90
22002;DHT22;11165;51.278;12.398;2022-08-19T04:05:34;20.30;99.90
22002;DHT22;11165;51.278;12.398;2022-08-19T04:08:00;20.30;99.90
22002;DHT22;11165;51.278;12.398;2022-08-19T04:10:27;20.30;99.90
22002;DHT22;11165;51.278;12.398;2022-08-19T04:12:53;20.30;99.90
22002;DHT22;11165;51.278;12.398;2022-08-19T04:15:19;20.30;99.90
22002;DHT22;11165;51.278;12.398;2022-08-19T04:17:44;20.30;99.90
22002;DHT22;11165;51.278;12.398;2022-08-19T04:20:10;20.30;99.90
22002;DHT22;11165;51.278;12.398;2022-08-19T04:22:36;20.30;99.90
22002;DHT22;11165;51.278;12.398;2022-08-19T04:25:02;20.30;99.90
22002;DHT22;11165;51.278;12.398;2022-08-19T04:27:27;20.30;99.90
22002;DHT22;11165;51.278;12.398;2022-08-19T04:29:53;20.30;99.90
22002;DHT22;11165;51.278;12.398;2022-08-19T04:32:20;20.20;99.90
22002;DHT22;11165;51.278;12.398;2022-08-19T04:34:46;20.20;99.90
22002;DHT22;11165;51.278;12.398;2022-08-19T04:37:12;20.20;99.90
22002;DHT22;11165;51.278;12.398;2022-08-19T04:39:38;20.20;99.90
22002;DHT22;11165;51.278;12.398;2022-08-19T04:42:23;20.20;99.90
22002;DHT22;11165;51.278;12.398;2022-08-19T04:45:12;20.20;99.90
22002;DHT22;11165;51.278;12.398;2022-08-19T04:47:40;20.20;99.90
22002;DHT22;11165;51.278;12.398;2022-08-19T04:50:07;20.20;99.90
22002;DHT22;11165;51.278;12.398;2022-08-19T04:52:34;20.20;99.90
22002;DHT22;11165;51.278;12.398;2022-08-19T04:54:59;20.20;99.90
22002;DHT22;11165;51.278;12.398;2022-08-19T04:57:25;20.30;99.90
22002;DHT22;11165;51.278;12.398;2022-08-19T04:59:56;20.30;99.90
22002;DHT22;11165;51.278;12.398;2022-08-19T05:02:22;20.20;99.90
22002;DHT22;11165;51.278;12.398;2022-08-19T05:04:56;20.30;99.90
22002;DHT22;11165;51.278;12.398;2022-08-19T05:07:22;20.30;99.90
22002;DHT22;11165;51.278;12.398;2022-08-19T05:09:47;20.30;99.90
22002;DHT22;11165;51.278;12.398;2022-08-19T05:12:13;20.30;99.90
22002;DHT22;11165;51.278;12.398;2022-08-19T05:14:39;20.30;99.90
22002;DHT22;11165;51.278;12.398;2022-08-19T05:17:04;20.30;99.90
22002;DHT22;11165;51.278;12.398;2022-08-19T05:19:30;20.30;99.90
22002;DHT22;11165;51.278;12.398;2022-08-19T05:22:14;20.30;99.90
22002;DHT22;11165;51.278;12.398;2022-08-19T05:25:04;20.30;99.90
22002;DHT22;11165;51.278;12.398;2022-08-19T05:27:30;20.30;99.90
22002;DHT22;11165;51.278;12.398;2022-08-19T05:29:56;20.30;99.90
22002;DHT22;11165;51.278;12.398;2022-08-19T05:32:22;20.30;99.90
22002;DHT22;11165;51.278;12.398;2022-08-19T05:34:48;20.30;99.90
22002;DHT22;11165;51.278;12.398;2022-08-19T05:37:14;20.30;99.90
22002;DHT22;11165;51.278;12.398;2022-08-19T05:39:40;20.30;99.90
22002;DHT22;11165;51.278;12.398;2022-08-19T05:42:10;20.30;99.90
22002;DHT22;11165;51.278;12.398;2022-08-19T05:44:40;20.40;99.90
22002;DHT22;11165;51.278;12.398;2022-08-19T05:47:10;20.40;99.90
22002;DHT22;11165;51.278;12.398;2022-08-19T05:49:37;20.40;99.90
22002;DHT22;11165;51.278;12.398;2022-08-19T05:52:05;20.40;99.90
22002;DHT22;11165;51.278;12.398;2022-08-19T05:54:32;20.40;99.90
22002;DHT22;11165;51.278;12.398;2022-08-19T05:56:57;20.40;99.90
22002;DHT22;11165;51.278;12.398;2022-08-19T05:59:23;20.40;99.90
22002;DHT22;11165;51.278;12.398;2022-08-19T06:01:51;20.40;99.90
22002;DHT22;11165;51.278;12.398;2022-08-19T06:04:20;20.40;99.90
22002;DHT22;11165;51.278;12.398;2022-08-19T06:06:47;20.40;99.90
22002;DHT22;11165;51.278;12.398;2022-08-19T06:09:14;20.40;99.90
22002;DHT22;11165;51.278;12.398;2022-08-19T06:11:45;20.40;99.90
22002;DHT22;11165;51.278;12.398;2022-08-19T06:14:17;20.40;99.90
22002;DHT22;11165;51.278;12.398;2022-08-19T06:16:44;20.40;99.90
22002;DHT22;11165;51.278;12.398;2022-08-19T06:19:15;20.40;99.90
22002;DHT22;11165;51.278;12.398;2022-08-19T06:21:42;20.40;99.90
22002;DHT22;11165;51.278;12.398;2022-08-19T06:24:11;20.30;99.90
22002;DHT22;11165;51.278;12.398;2022-08-19T06:26:40;20.40;99.90
22002;DHT22;11165;51.278;12.398;2022-08-19T06:29:08;20.40;99.90
22002;DHT22;11165;51.278;12.398;2022-08-19T06:31:34;20.40;99.90
22002;DHT22;11165;51.278;12.398;2022-08-19T06:34:01;20.40;99.90
22002;DHT22;11165;51.278;12.398;2022-08-19T06:36:31;20.40;99.90
22002;DHT22;11165;51.278;12.398;2022-08-19T06:39:01;20.30;99.90
22002;DHT22;11165;51.278;12.398;2022-08-19T06:41:27;20.40;99.90
22002;DHT22;11165;51.278;12.398;2022-08-19T06:43:53;20.40;99.90
22002;DHT22;11165;51.278;12.398;2022-08-19T06:46:19;20.40;99.90
22002;DHT22;11165;51.278;12.398;2022-08-19T06:48:46;20.40;99.90
22002;DHT22;11165;51.278;12.398;2022-08-19T06:51:14;20.30;99.90
22002;DHT22;11165;51.278;12.398;2022-08-19T06:53:41;20.30;99.90
22002;DHT22;11165;51.278;12.398;2022-08-19T06:56:13;20.30;99.90
22002;DHT22;11165;51.278;12.398;2022-08-19T06:58:39;20.30;99.90
22002;DHT22;11165;51.278;12.398;2022-08-19T07:01:05;20.20;99.90
22002;DHT22;11165;51.278;12.398;2022-08-19T07:03:33;20.20;99.90
22002;DHT22;11165;51.278;12.398;2022-08-19T07:06:18;20.20;99.90
22002;DHT22;11165;51.278;12.398;2022-08-19T07:08:46;20.20;99.90
22002;DHT22;11165;51.278;12.398;2022-08-19T07:11:15;20.20;99.90
22002;DHT22;11165;51.278;12.398;2022-08-19T07:13:42;20.20;99.90
22002;DHT22;11165;51.278;12.398;2022-08-19T07:16:11;20.10;99.90
22002;DHT22;11165;51.278;12.398;2022-08-19T07:18:38;20.10;99.90
22002;DHT22;11165;51.278;12.398;2022-08-19T07:21:09;20.10;99.90
22002;DHT22;11165;51.278;12.398;2022-08-19T07:23:36;20.00;99.90
22002;DHT22;11165;51.278;12.398;2022-08-19T07:26:13;20.00;99.90
22002;DHT22;11165;51.278;12.398;2022-08-19T07:28:39;20.00;99.90
22002;DHT22;11165;51.278;12.398;2022-08-19T07:31:07;20.00;99.90
22002;DHT22;11165;51.278;12.398;2022-08-19T07:33:33;20.00;99.90
22002;DHT22;11165;51.278;12.398;2022-08-19T07:36:03;20.00;99.90
22002;DHT22;11165;51.278;12.398;2022-08-19T07:38:30;20.00;99.90
22002;DHT22;11165;51.278;12.398;2022-08-19T07:40:55;19.90;99.90
22002;DHT22;11165;51.278;12.398;2022-08-19T07:43:21;19.90;99.90
22002;DHT22;11165;51.278;12.398;2022-08-19T07:45:51;19.90;99.90
22002;DHT22;11165;51.278;12.398;2022-08-19T07:48:18;19.90;99.90
22002;DHT22;11165;51.278;12.398;2022-08-19T07:50:44;20.00;99.90
22002;DHT22;11165;51.278;12.398;2022-08-19T07:53:10;20.00;99.90
22002;DHT22;11165;51.278;12.398;2022-08-19T07:55:37;20.00;99.90
22002;DHT22;11165;51.278;12.398;2022-08-19T07:58:03;20.00;99.90
22002;DHT22;11165;51.278;12.398;2022-08-19T08:00:30;20.00;99.90
22002;DHT22;11165;51.278;12.398;2022-08-19T08:02:55;20.00;99.90
22002;DHT22;11165;51.278;12.398;2022-08-19T08:05:22;20.00;99.90
22002;DHT22;11165;51.278;12.398;2022-08-19T08:08:06;20.00;99.90
22002;DHT22;11165;51.278;12.398;2022-08-19T08:10:50;20.00;99.90
22002;DHT22;11165;51.278;12.398;2022-08-19T08:13:16;19.90;99.90
22002;DHT22;11165;51.278;12.398;2022-08-19T08:15:42;20.00;99.90
22002;DHT22;11165;51.278;12.398;2022-08-19T08:18:10;20.00;99.90
22002;DHT22;11165;51.278;12.398;2022-08-19T08:20:36;20.00;99.90
22002;DHT22;11165;51.278;12.398;2022-08-19T08:23:02;20.00;99.90
22002;DHT22;11165;51.278;12.398;2022-08-19T08:25:46;20.00;99.90
22002;DHT22;11165;51.278;12.398;2022-08-19T08:28:13;20.00;99.90
22002;DHT22;11165;51.278;12.398;2022-08-19T08:30:39;20.00;99.90
22002;DHT22;11165;51.278;12.398;2022-08-19T08:33:07;20.00;99.90
22002;DHT22;11165;51.278;12.398;2022-08-19T08:35:33;20.00;99.90
22002;DHT22;11165;51.278;12.398;2022-08-19T08:37:59;20.00;99.90
22002;DHT22;11165;51.278;12.398;2022-08-19T08:43:03;20.00;99.90
22002;DHT22;11165;51.278;12.398;2022-08-19T08:45:33;20.00;99.90
22002;DHT22;11165;51.278;12.398;2022-08-19T08:48:11;20.00;99.90
22002;DHT22;11165;51.278;12.398;2022-08-19T08:50:42;20.00;99.90
22002;DHT22;11165;51.278;12.398;2022-08-19T08:53:10;20.00;99.90
22002;DHT22;11165;51.278;12.398;2022-08-19T08:55:37;20.00;99.90
22002;DHT22;11165;51.278;12.398;2022-08-19T08:58:12;20.00;99.90
22002;DHT22;11165;51.278;12.398;2022-08-19T09:00:45;20.00;99.90
22002;DHT22;11165;51.278;12.398;2022-08-19T09:03:27;19.90;99.90
22002;DHT22;11165;51.278;12.398;2022-08-19T09:08:39;20.00;99.90
22002;DHT22;11165;51.278;12.398;2022-08-19T09:11:12;20.00;99.90
22002;DHT22;11165;51.278;12.398;2022-08-19T09:14:02;20.00;99.90
22002;DHT22;11165;51.278;12.398;2022-08-19T09:16:33;20.10;99.90
22002;DHT22;11165;51.278;12.398;2022-08-19T09:19:04;20.10;99.90
22002;DHT22;11165;51.278;12.398;2022-08-19T09:21:30;20.10;99.90
22002;DHT22;11165;51.278;12.398;2022-08-19T09:23:56;20.00;99.90
22002;DHT22;11165;51.278;12.398;2022-08-19T09:26:23;20.00;99.90
22002;DHT22;11165;51.278;12.398;2022-08-19T09:28:51;20.10;99.90
22002;DHT22;11165;51.278;12.398;2022-08-19T09:31:20;20.10;99.90
22002;DHT22;11165;51.278;12.398;2022-08-19T09:33:47;20.10;99.90
22002;DHT22;11165;51.278;12.398;2022-08-19T09:36:16;20.20;99.90
22002;DHT22;11165;51.278;12.398;2022-08-19T09:38:42;20.30;99.90
22002;DHT22;11165;51.278;12.398;2022-08-19T09:41:11;20.30;99.90
22002;DHT22;11165;51.278;12.398;2022-08-19T09:43:39;20.30;99.90
22002;DHT22;11165;51.278;12.398;2022-08-19T09:46:07;20.40;99.90
22002;DHT22;11165;51.278;12.398;2022-08-19T09:48:38;20.40;99.90
22002;DHT22;11165;51.278;12.398;2022-08-19T09:51:16;20.50;99.90
22002;DHT22;11165;51.278;12.398;2022-08-19T09:53:46;20.50;99.90
22002;DHT22;11165;51.278;12.398;2022-08-19T09:56:12;20.60;99.90
22002;DHT22;11165;51.278;12.398;2022-08-19T09:58:39;20.60;99.90
22002;DHT22;11165;51.278;12.398;2022-08-19T10:01:05;20.60;99.90
22002;DHT22;11165;51.278;12.398;2022-08-19T10:03:33;20.60;99.90
22002;DHT22;11165;51.278;12.398;2022-08-19T10:06:01;20.60;99.90
22002;DHT22;11165;51.278;12.398;2022-08-19T10:08:35;20.60;99.90
22002;DHT22;11165;51.278;12.398;2022-08-19T10:11:02;20.60;99.90
22002;DHT22;11165;51.278;12.398;2022-08-19T10:13:30;20.60;99.90
22002;DHT22;11165;51.278;12.398;2022-08-19T10:16:12;20.70;99.90
22002;DHT22;11165;51.278;12.398;2022-08-19T10:18:38;20.70;99.90
22002;DHT22;11165;51.278;12.398;2022-08-19T10:21:25;20.80;99.90
22002;DHT22;11165;51.278;12.398;2022-08-19T10:23:52;20.90;99.90
22002;DHT22;11165;51.278;12.398;2022-08-19T10:26:21;20.90;99.90
22002;DHT22;11165;51.278;12.398;2022-08-19T10:28:48;21.00;99.90
22002;DHT22;11165;51.278;12.398;2022-08-19T10:31:17;21.10;99.90
22002;DHT22;11165;51.278;12.398;2022-08-19T10:33:46;21.10;99.90
22002;DHT22;11165;51.278;12.398;2022-08-19T10:36:15;21.00;99.90
22002;DHT22;11165;51.278;12.398;2022-08-19T10:38:44;20.90;99.90
22002;DHT22;11165;51.278;12.398;2022-08-19T10:41:16;21.00;99.90
22002;DHT22;11165;51.278;12.398;2022-08-19T10:43:43;21.00;99.90
22002;DHT22;11165;51.278;12.398;2022-08-19T10:46:13;20.90;99.90
22002;DHT22;11165;51.278;12.398;2022-08-19T10:48:40;21.00;99.90
22002;DHT22;11165;51.278;12.398;2022-08-19T10:51:05;20.90;99.90
22002;DHT22;11165;51.278;12.398;2022-08-19T10:53:49;21.00;99.90
22002;DHT22;11165;51.278;12.398;2022-08-19T10:56:16;21.00;99.90
22002;DHT22;11165;51.278;12.398;2022-08-19T10:59:00;21.00;99.90
22002;DHT22;11165;51.278;12.398;2022-08-19T11:01:29;21.00;99.90
22002;DHT22;11165;51.278;12.398;2022-08-19T11:03:56;21.00;99.90
22002;DHT22;11165;51.278;12.398;2022-08-19T11:06:23;21.00;99.90
22002;DHT22;11165;51.278;12.398;2022-08-19T11:08:51;21.10;99.90
22002;DHT22;11165;51.278;12.398;2022-08-19T11:11:17;21.00;99.90
22002;DHT22;11165;51.278;12.398;2022-08-19T11:13:43;21.00;99.90
22002;DHT22;11165;51.278;12.398;2022-08-19T11:16:19;20.90;99.90
22002;DHT22;11165;51.278;12.398;2022-08-19T11:18:50;20.90;99.90
22002;DHT22;11165;51.278;12.398;2022-08-19T11:23:46;20.90;99.90
22002;DHT22;11165;51.278;12.398;2022-08-19T11:26:12;20.90;99.90
22002;DHT22;11165;51.278;12.398;2022-08-19T11:28:39;20.90;99.90
22002;DHT22;11165;51.278;12.398;2022-08-19T11:31:10;20.90;99.90
22002;DHT22;11165;51.278;12.398;2022-08-19T11:33:35;20.90;99.90
22002;DHT22;11165;51.278;12.398;2022-08-19T11:36:01;20.90;99.90
22002;DHT22;11165;51.278;12.398;2022-08-19T11:38:27;20.90;99.90
22002;DHT22;11165;51.278;12.398;2022-08-19T11:40:58;20.90;99.90
22002;DHT22;11165;51.278;12.398;2022-08-19T11:43:24;20.90;99.90
22002;DHT22;11165;51.278;12.398;2022-08-19T11:45:52;21.00;99.90
22002;DHT22;11165;51.278;12.398;2022-08-19T11:48:18;20.90;99.90
22002;DHT22;11165;51.278;12.398;2022-08-19T11:50:50;20.80;99.90
22002;DHT22;11165;51.278;12.398;2022-08-19T11:53:17;20.80;99.90
22002;DHT22;11165;51.278;12.398;2022-08-19T11:55:44;20.90;99.90
22002;DHT22;11165;51.278;12.398;2022-08-19T11:58:10;21.00;99.90
22002;DHT22;11165;51.278;12.398;2022-08-19T12:00:38;21.10;99.90
22002;DHT22;11165;51.278;12.398;2022-08-19T12:03:03;21.10;99.90
22002;DHT22;11165;51.278;12.398;2022-08-19T12:05:29;21.20;99.90
22002;DHT22;11165;51.278;12.398;2022-08-19T12:07:55;21.20;99.90
22002;DHT22;11165;51.278;12.398;2022-08-19T12:10:21;21.30;99.90
22002;DHT22;11165;51.278;12.398;2022-08-19T12:12:47;21.30;99.90
22002;DHT22;11165;51.278;12.398;2022-08-19T12:15:13;21.40;99.90
22002;DHT22;11165;51.278;12.398;2022-08-19T12:17:40;21.60;99.90
22002;DHT22;11165;51.278;12.398;2022-08-19T12:20:09;21.70;99.90
22002;DHT22;11165;51.278;12.398;2022-08-19T12:22:36;22.00;99.90
22002;DHT22;11165;51.278;12.398;2022-08-19T12:25:04;22.20;99.90
22002;DHT22;11165;51.278;12.398;2022-08-19T12:27:30;22.10;99.90
22002;DHT22;11165;51.278;12.398;2022-08-19T12:29:56;22.00;99.90
22002;DHT22;11165;51.278;12.398;2022-08-19T12:32:22;21.90;99.90
22002;DHT22;11165;51.278;12.398;2022-08-19T12:34:50;22.10;99.90
22002;DHT22;11165;51.278;12.398;2022-08-19T12:37:15;22.30;99.90
22002;DHT22;11165;51.278;12.398;2022-08-19T12:39:42;22.30;99.90
22002;DHT22;11165;51.278;12.398;2022-08-19T12:42:09;22.30;99.90
22002;DHT22;11165;51.278;12.398;2022-08-19T12:44:37;22.30;99.90
22002;DHT22;11165;51.278;12.398;2022-08-19T12:47:03;22.30;99.90
22002;DHT22;11165;51.278;12.398;2022-08-19T12:49:30;22.50;99.90
22002;DHT22;11165;51.278;12.398;2022-08-19T12:51:56;22.50;99.90
22002;DHT22;11165;51.278;12.398;2022-08-19T12:54:23;22.30;99.90
22002;DHT22;11165;51.278;12.398;2022-08-19T12:56:49;22.30;99.90
22002;DHT22;11165;51.278;12.398;2022-08-19T12:59:14;22.30;99.90
22002;DHT22;11165;51.278;12.398;2022-08-19T13:01:43;22.40;99.90
22002;DHT22;11165;51.278;12.398;2022-08-19T13:04:09;22.60;99.90
22002;DHT22;11165;51.278;12.398;2022-08-19T13:06:35;22.60;99.90
22002;DHT22;11165;51.278;12.398;2022-08-19T13:09:01;22.80;99.90
22002;DHT22;11165;51.278;12.398;2022-08-19T13:11:27;22.80;99.90
22002;DHT22;11165;51.278;12.398;2022-08-19T13:13:57;22.90;99.90
22002;DHT22;11165;51.278;12.398;2022-08-19T13:16:24;23.00;99.90
22002;DHT22;11165;51.278;12.398;2022-08-19T13:18:50;23.10;99.90
22002;DHT22;11165;51.278;12.398;2022-08-19T13:21:19;22.80;99.90
22002;DHT22;11165;51.278;12.398;2022-08-19T13:23:45;22.80;99.90
22002;DHT22;11165;51.278;12.398;2022-08-19T13:26:14;22.70;99.90
22002;DHT22;11165;51.278;12.398;2022-08-19T13:28:40;22.50;99.90
22002;DHT22;11165;51.278;12.398;2022-08-19T13:31:26;22.50;99.90
22002;DHT22;11165;51.278;12.398;2022-08-19T13:34:11;22.60;99.90
22002;DHT22;11165;51.278;12.398;2022-08-19T13:36:37;22.60;99.90
22002;DHT22;11165;51.278;12.398;2022-08-19T13:39:04;22.40;99.90
22002;DHT22;11165;51.278;12.398;2022-08-19T13:41:30;22.30;99.90
22002;DHT22;11165;51.278;12.398;2022-08-19T13:43:56;22.30;99.90
22002;DHT22;11165;51.278;12.398;2022-08-19T13:46:22;22.20;99.90
22002;DHT22;11165;51.278;12.398;2022-08-19T13:48:48;22.20;99.90
22002;DHT22;11165;51.278;12.398;2022-08-19T13:51:15;22.20;99.90
22002;DHT22;11165;51.278;12.398;2022-08-19T13:53:42;22.20;99.90
22002;DHT22;11165;51.278;12.398;2022-08-19T13:56:15;22.20;99.90
22002;DHT22;11165;51.278;12.398;2022-08-19T13:58:41;22.20;99.90
22002;DHT22;11165;51.278;12.398;2022-08-19T14:01:07;22.20;99.90
22002;DHT22;11165;51.278;12.398;2022-08-19T14:03:33;22.30;99.90
22002;DHT22;11165;51.278;12.398;2022-08-19T14:05:59;22.40;99.90
22002;DHT22;11165;51.278;12.398;2022-08-19T14:08:25;22.40;99.90
22002;DHT22;11165;51.278;12.398;2022-08-19T14:10:55;22.40;99.90
22002;DHT22;11165;51.278;12.398;2022-08-19T14:13:22;22.50;99.90
22002;DHT22;11165;51.278;12.398;2022-08-19T14:15:48;22.50;99.90
22002;DHT22;11165;51.278;12.398;2022-08-19T14:18:15;22.60;99.90
22002;DHT22;11165;51.278;12.398;2022-08-19T14:20:42;22.60;99.90
22002;DHT22;11165;51.278;12.398;2022-08-19T14:23:08;22.50;99.90
22002;DHT22;11165;51.278;12.398;2022-08-19T14:25:33;22.50;99.90
22002;DHT22;11165;51.278;12.398;2022-08-19T14:27:59;22.60;99.90
22002;DHT22;11165;51.278;12.398;2022-08-19T14:30:31;22.50;99.90
22002;DHT22;11165;51.278;12.398;2022-08-19T14:32:58;22.40;99.90
22002;DHT22;11165;51.278;12.398;2022-08-19T14:35:25;22.40;99.90
22002;DHT22;11165;51.278;12.398;2022-08-19T14:37:54;22.30;99.90
22002;DHT22;11165;51.278;12.398;2022-08-19T14:40:21;22.30;99.90
22002;DHT22;11165;51.278;12.398;2022-08-19T14:42:51;22.20;99.90
22002;DHT22;11165;51.278;12.398;2022-08-19T14:45:17;22.20;99.90
22002;DHT22;11165;51.278;12.398;2022-08-19T14:47:42;22.20;99.90
22002;DHT22;11165;51.278;12.398;2022-08-19T14:50:09;22.20;99.90
22002;DHT22;11165;51.278;12.398;2022-08-19T14:52:35;22.10;99.90
22002;DHT22;11165;51.278;12.398;2022-08-19T14:55:03;22.10;99.90
22002;DHT22;11165;51.278;12.398;2022-08-19T14:57:28;22.00;99.90
22002;DHT22;11165;51.278;12.398;2022-08-19T14:59:54;22.00;99.90
22002;DHT22;11165;51.278;12.398;2022-08-19T15:02:20;22.00;99.90
22002;DHT22;11165;51.278;12.398;2022-08-19T15:04:46;22.00;99.90
22002;DHT22;11165;51.278;12.398;2022-08-19T15:07:11;22.10;99.90
22002;DHT22;11165;51.278;12.398;2022-08-19T15:09:37;22.10;99.90
22002;DHT22;11165;51.278;12.398;2022-08-19T15:12:03;22.10;99.90
22002;DHT22;11165;51.278;12.398;2022-08-19T15:14:30;22.10;99.90
22002;DHT22;11165;51.278;12.398;2022-08-19T15:17:01;22.20;99.90
22002;DHT22;11165;51.278;12.398;2022-08-19T15:19:29;22.20;99.90
22002;DHT22;11165;51.278;12.398;2022-08-19T15:21:54;22.20;99.90
22002;DHT22;11165;51.278;12.398;2022-08-19T15:24:21;22.20;99.90
22002;DHT22;11165;51.278;12.398;2022-08-19T15:26:47;22.30;99.90
22002;DHT22;11165;51.278;12.398;2022-08-19T15:29:13;22.20;99.90